Main page
METAR-TAF:

METAR-TAF

Airports :

Rodez–Aveyron Airport

Rodez, France

latitude: 44-24N, longitude: 002-29E, elevation: 581 m

Current weather observation

The report was made 27 minutes ago, at 04:30 UTC
Wind 3 kt from the East
Temperature -2°C
Humidity 80%
Pressure 1016 hPa
Visibility 10 km or more
no clouds below 1500 m and no cumulonimbus

METAR: LFCR 160430Z AUTO 10003KT CAVOK M02/M05 Q1016 NOSIG

Time: 05:57 (04:57 UTC)

Forecast

The report was made 5 hours and 57 minutes ago, at 23:00 UTC
Forecast valid from 16 at 00 UTC to 16 at 24 UTC
Wind 2 kt from variable directions
Visibility 10 km or more
no clouds below 1500 m and no cumulonimbus
Becoming
from 16 at 00 UTC to 16 at 02 UTC
Wind 6 kt from the South/Southeast
Becoming
from 16 at 19 UTC to 16 at 21 UTC
Broken clouds at a height of 2000 ft
Probability 30% :
Temporary
from 16 at 20 UTC to 16 at 24 UTC
Visibility: 4000 m
mist

TAF: LFCR 152300Z 1600/1624 VRB02KT CAVOK BECMG 1600/1602 15006KT BECMG 1619/1621 BKN020 PROB30 TEMPO 1620/1624 4000 BR

Weather observations and forecasts of more than 4000 airports (METAR and TAF reports).

The available stations are represented by yellow and red dots on the map.

Hover mouse over dot to see the name of the station.

Then click to see weather observations and forecasts.

To change the map : click on the green buttons with a black cross to zoom in, on the green button with a dash to zoom out, or on the green arrows for adjacent maps.


METAR-TAF: